createdAt,value
2016-07-02T00:00:42.056Z,0
2016-07-02T00:01:42.028Z,0
2016-07-02T00:02:42.051Z,0
2016-07-02T00:03:42.085Z,0
2016-07-02T00:04:42.111Z,0
2016-07-02T00:05:42.139Z,0
2016-07-02T00:06:42.159Z,0
2016-07-02T00:07:42.193Z,0
2016-07-02T00:08:42.220Z,0
2016-07-02T00:09:42.242Z,0
2016-07-02T00:10:42.274Z,0
2016-07-02T00:11:42.312Z,0
2016-07-02T00:12:42.330Z,0
2016-07-02T00:13:42.374Z,0
2016-07-02T00:14:42.394Z,0
2016-07-02T00:15:42.429Z,0
2016-07-02T00:16:42.449Z,0
2016-07-02T00:17:42.491Z,0
2016-07-02T00:18:42.508Z,0
2016-07-02T00:19:42.540Z,0
2016-07-02T00:20:43.170Z,0
2016-07-02T00:21:42.595Z,0
2016-07-02T00:22:42.625Z,0
2016-07-02T00:23:42.654Z,0
2016-07-02T00:24:42.682Z,0
2016-07-02T00:25:42.703Z,0
2016-07-02T00:26:42.739Z,0
2016-07-02T00:27:42.768Z,0
2016-07-02T00:28:42.793Z,0
2016-07-02T00:29:42.825Z,0
2016-07-02T00:30:42.853Z,0
2016-07-02T00:31:42.879Z,0
2016-07-02T00:32:42.905Z,0
2016-07-02T00:33:44.157Z,0
2016-07-02T00:34:42.966Z,0
2016-07-02T00:35:42.994Z,0
2016-07-02T00:36:43.020Z,0
2016-07-02T00:37:43.044Z,0
2016-07-02T00:38:43.072Z,0
2016-07-02T00:39:43.100Z,0
2016-07-02T00:40:43.135Z,0
2016-07-02T00:41:43.163Z,0
2016-07-02T00:42:43.192Z,0
2016-07-02T00:43:43.216Z,0
2016-07-02T00:44:43.251Z,0
2016-07-02T00:45:43.268Z,0
2016-07-02T00:46:43.296Z,0
2016-07-02T00:47:43.320Z,0
2016-07-02T00:48:43.350Z,0
2016-07-02T00:49:43.386Z,0
2016-07-02T00:50:43.417Z,0
2016-07-02T00:51:43.440Z,0
2016-07-02T00:52:43.475Z,0
2016-07-02T00:53:43.482Z,0
2016-07-02T00:54:43.522Z,0
2016-07-02T00:55:44.166Z,0
2016-07-02T00:56:44.190Z,0
2016-07-02T00:57:43.596Z,0
2016-07-02T00:58:43.645Z,0
2016-07-02T00:59:43.662Z,0
2016-07-02T01:00:43.700Z,0
2016-07-02T01:01:43.729Z,0
2016-07-02T01:02:43.758Z,0
2016-07-02T01:03:44.381Z,0
2016-07-02T01:04:43.803Z,0
2016-07-02T01:05:43.837Z,0
2016-07-02T01:06:43.867Z,0
2016-07-02T01:07:43.889Z,0
2016-07-02T01:08:43.927Z,0
2016-07-02T01:09:43.945Z,0
2016-07-02T01:10:43.969Z,0
2016-07-02T01:11:43.998Z,0
2016-07-02T01:12:44.022Z,0
2016-07-02T01:13:44.055Z,0
2016-07-02T01:14:44.087Z,0
2016-07-02T01:15:44.108Z,0
2016-07-02T01:16:44.150Z,0
2016-07-02T01:17:44.771Z,0
2016-07-02T01:18:44.191Z,0
2016-07-02T01:19:44.214Z,0
2016-07-02T01:20:44.266Z,0
2016-07-02T01:21:44.280Z,0
2016-07-02T01:22:44.314Z,0
2016-07-02T01:23:44.325Z,0
2016-07-02T01:24:44.374Z,0
2016-07-02T01:25:44.384Z,0
2016-07-02T01:26:45.039Z,0
2016-07-02T01:27:44.437Z,0
2016-07-02T01:28:44.473Z,0
2016-07-02T01:29:44.497Z,0
2016-07-02T01:30:44.531Z,0
2016-07-02T01:31:44.541Z,0
2016-07-02T01:32:44.582Z,0
2016-07-02T01:33:44.606Z,0
2016-07-02T01:34:44.640Z,0
2016-07-02T01:35:44.666Z,0
2016-07-02T01:36:44.698Z,0
2016-07-02T01:37:44.716Z,0
2016-07-02T01:38:44.758Z,0
2016-07-02T01:39:44.782Z,0
2016-07-02T01:40:44.809Z,0
2016-07-02T01:41:44.833Z,0
2016-07-02T01:42:44.871Z,0
2016-07-02T01:43:44.879Z,0
2016-07-02T01:44:44.920Z,0
2016-07-02T01:45:44.946Z,0
2016-07-02T01:46:44.974Z,0
2016-07-02T01:47:45.005Z,0
2016-07-02T01:48:45.034Z,0
2016-07-02T01:49:45.049Z,0
2016-07-02T01:50:45.088Z,0
2016-07-02T01:51:45.102Z,0
2016-07-02T01:52:45.141Z,0
2016-07-02T01:53:45.162Z,0
2016-07-02T01:54:45.191Z,0
2016-07-02T01:55:45.215Z,0
2016-07-02T01:56:45.238Z,0
2016-07-02T01:57:45.276Z,0
2016-07-02T01:58:45.305Z,0
2016-07-02T01:59:45.328Z,0
2016-07-02T02:00:45.356Z,0
2016-07-02T02:01:45.382Z,0
2016-07-02T02:02:45.417Z,0
2016-07-02T02:03:45.445Z,0
2016-07-02T02:04:45.462Z,0
2016-07-02T02:05:45.494Z,0
2016-07-02T02:06:45.524Z,0
2016-07-02T02:07:45.541Z,0
2016-07-02T02:08:45.583Z,0
2016-07-02T02:09:45.640Z,0
2016-07-02T02:10:45.634Z,0
2016-07-02T02:11:45.653Z,0
2016-07-02T02:12:45.673Z,0
2016-07-02T02:13:45.706Z,0
2016-07-02T02:14:45.737Z,0
2016-07-02T02:15:45.766Z,0
2016-07-02T02:16:45.795Z,0
2016-07-02T02:17:45.802Z,0
2016-07-02T02:18:45.842Z,0
2016-07-02T02:19:45.860Z,0
2016-07-02T02:20:45.899Z,0
2016-07-02T02:21:45.929Z,0
2016-07-02T02:22:45.959Z,0
2016-07-02T02:23:45.984Z,0
2016-07-02T02:24:46.014Z,0
2016-07-02T02:25:46.035Z,0
2016-07-02T02:26:46.071Z,0
2016-07-02T02:27:46.096Z,0
2016-07-02T02:28:46.122Z,0
2016-07-02T02:29:46.157Z,0
2016-07-02T02:30:46.181Z,0
2016-07-02T02:31:46.217Z,0
2016-07-02T02:32:46.234Z,0
2016-07-02T02:33:46.274Z,0
2016-07-02T02:34:46.284Z,0
2016-07-02T02:35:46.419Z,0
2016-07-02T02:36:46.357Z,0
2016-07-02T02:37:46.370Z,0
2016-07-02T02:38:46.452Z,0
2016-07-02T02:39:46.422Z,0
2016-07-02T02:40:46.448Z,0
2016-07-02T02:41:46.466Z,0
2016-07-02T02:42:46.498Z,0
2016-07-02T02:43:46.523Z,0
2016-07-02T02:44:46.562Z,0
2016-07-02T02:45:46.589Z,0
2016-07-02T02:46:46.622Z,0
2016-07-02T02:47:46.637Z,0
2016-07-02T02:48:46.671Z,0
2016-07-02T02:49:46.701Z,0
2016-07-02T02:50:46.722Z,0
2016-07-02T02:51:47.362Z,0
2016-07-02T02:52:46.786Z,0
2016-07-02T02:53:46.803Z,0
2016-07-02T02:54:46.833Z,0
2016-07-02T02:55:46.871Z,0
2016-07-02T02:56:46.884Z,0
2016-07-02T02:57:46.926Z,0
2016-07-02T02:58:46.934Z,0
2016-07-02T02:59:46.955Z,0
2016-07-02T03:00:46.988Z,0
2016-07-02T03:01:47.014Z,0
2016-07-02T03:02:47.041Z,0
2016-07-02T03:03:47.070Z,0
2016-07-02T03:04:47.096Z,0
2016-07-02T03:05:47.120Z,0
2016-07-02T03:06:47.151Z,0
2016-07-02T03:07:47.172Z,0
2016-07-02T03:08:47.204Z,0
2016-07-02T03:09:47.227Z,0
2016-07-02T03:10:47.257Z,0
2016-07-02T03:11:47.281Z,0
2016-07-02T03:12:47.310Z,0
2016-07-02T03:13:47.327Z,0
2016-07-02T03:14:47.366Z,0
2016-07-02T03:15:48.003Z,0
2016-07-02T03:16:47.411Z,0
2016-07-02T03:17:47.443Z,0
2016-07-02T03:18:47.478Z,0
2016-07-02T03:19:47.495Z,0
2016-07-02T03:20:47.528Z,0
2016-07-02T03:21:47.554Z,0
2016-07-02T03:22:47.581Z,0
2016-07-02T03:23:47.605Z,0
2016-07-02T03:24:47.628Z,0
2016-07-02T03:25:47.666Z,0
2016-07-02T03:26:47.686Z,0
2016-07-02T03:27:47.705Z,0
2016-07-02T03:28:47.736Z,0
2016-07-02T03:29:47.767Z,0
2016-07-02T03:30:47.797Z,0
2016-07-02T03:31:47.830Z,0
2016-07-02T03:32:47.853Z,0
2016-07-02T03:33:47.891Z,0
2016-07-02T03:34:47.910Z,0
2016-07-02T03:35:47.932Z,0
2016-07-02T03:36:47.957Z,0
2016-07-02T03:37:47.986Z,0
2016-07-02T03:38:48.009Z,0
2016-07-02T03:39:48.036Z,0
2016-07-02T03:40:48.069Z,0
2016-07-02T03:41:48.098Z,0
2016-07-02T03:42:48.120Z,0
2016-07-02T03:43:48.149Z,0
2016-07-02T03:44:48.174Z,0
2016-07-02T03:45:48.207Z,0
2016-07-02T03:46:48.244Z,0
2016-07-02T03:47:48.263Z,0
2016-07-02T03:48:48.287Z,0
2016-07-02T03:49:48.312Z,0
2016-07-02T03:50:48.951Z,0
2016-07-02T03:51:48.362Z,5
2016-07-02T03:52:48.388Z,5
2016-07-02T03:53:48.417Z,5
2016-07-02T03:54:48.443Z,0
2016-07-02T03:55:48.634Z,0
2016-07-02T03:56:48.498Z,5
2016-07-02T03:57:48.517Z,5
2016-07-02T03:58:48.544Z,5
2016-07-02T03:59:48.575Z,0
2016-07-02T04:00:48.608Z,0
2016-07-02T04:01:48.634Z,5
2016-07-02T04:02:48.656Z,5
2016-07-02T04:03:48.685Z,5
2016-07-02T04:04:48.718Z,5
2016-07-02T04:05:48.738Z,5
2016-07-02T04:06:48.767Z,5
2016-07-02T04:07:48.792Z,5
2016-07-02T04:08:48.838Z,5
2016-07-02T04:09:48.840Z,5
2016-07-02T04:10:48.871Z,5
2016-07-02T04:11:48.950Z,5
2016-07-02T04:12:48.934Z,5
2016-07-02T04:13:48.949Z,5
2016-07-02T04:14:48.980Z,5
2016-07-02T04:15:49.005Z,5
2016-07-02T04:16:49.038Z,5
2016-07-02T04:17:49.065Z,5
2016-07-02T04:18:49.085Z,5
2016-07-02T04:19:49.118Z,5
2016-07-02T04:20:49.141Z,5
2016-07-02T04:21:49.161Z,5
2016-07-02T04:22:49.210Z,5
2016-07-02T04:23:49.221Z,5
2016-07-02T04:24:49.248Z,5
2016-07-02T04:25:49.278Z,5
2016-07-02T04:26:49.305Z,5
2016-07-02T04:27:49.330Z,5
2016-07-02T04:28:49.389Z,5
2016-07-02T04:29:49.389Z,5
2016-07-02T04:30:49.418Z,5
2016-07-02T04:31:49.442Z,5
2016-07-02T04:32:49.470Z,5
2016-07-02T04:33:49.488Z,5
2016-07-02T04:34:49.509Z,5
2016-07-02T04:35:49.529Z,5
2016-07-02T04:36:49.569Z,5
2016-07-02T04:37:49.588Z,5
2016-07-02T04:38:49.621Z,5
2016-07-02T04:39:49.646Z,5
2016-07-02T04:40:49.679Z,5
2016-07-02T04:41:49.698Z,5
2016-07-02T04:42:49.740Z,5
2016-07-02T04:43:49.755Z,5
2016-07-02T04:44:49.802Z,5
2016-07-02T04:45:49.818Z,5
2016-07-02T04:46:49.841Z,5
2016-07-02T04:47:50.474Z,5
2016-07-02T04:48:49.906Z,5
2016-07-02T04:49:49.918Z,5
2016-07-02T04:50:49.959Z,5
2016-07-02T04:51:49.962Z,5
2016-07-02T04:52:50.003Z,5
2016-07-02T04:53:50.031Z,5
2016-07-02T04:54:50.055Z,5
2016-07-02T04:55:50.075Z,5
2016-07-02T04:56:50.102Z,10
2016-07-02T04:57:50.134Z,10
2016-07-02T04:58:50.161Z,10
2016-07-02T04:59:50.191Z,10
2016-07-02T05:00:50.214Z,10
2016-07-02T05:01:50.239Z,10
2016-07-02T05:02:50.286Z,10
2016-07-02T05:03:50.297Z,5
2016-07-02T05:04:50.321Z,5
2016-07-02T05:05:50.342Z,10
2016-07-02T05:06:50.382Z,10
2016-07-02T05:07:50.396Z,10
2016-07-02T05:08:50.423Z,5
2016-07-02T05:09:50.438Z,5
2016-07-02T05:10:50.559Z,5
2016-07-02T05:11:50.511Z,5
2016-07-02T05:12:50.570Z,10
2016-07-02T05:13:50.560Z,10
2016-07-02T05:14:50.595Z,10
2016-07-02T05:15:50.792Z,10
2016-07-02T05:16:50.649Z,10
2016-07-02T05:17:50.667Z,15
2016-07-02T05:18:50.698Z,15
2016-07-02T05:19:50.725Z,15
2016-07-02T05:20:50.762Z,15
2016-07-02T05:21:50.785Z,15
2016-07-02T05:22:50.838Z,15
2016-07-02T05:23:50.833Z,15
2016-07-02T05:24:50.870Z,15
2016-07-02T05:25:50.895Z,15
2016-07-02T05:26:50.926Z,15
2016-07-02T05:27:50.944Z,15
2016-07-02T05:28:50.979Z,15
2016-07-02T05:29:50.993Z,15
2016-07-02T05:30:51.032Z,15
2016-07-02T05:31:51.053Z,15
2016-07-02T05:32:51.100Z,15
2016-07-02T05:33:51.109Z,10
2016-07-02T05:34:51.145Z,10
2016-07-02T05:35:51.162Z,10
2016-07-02T05:36:51.188Z,10
2016-07-02T05:37:51.214Z,10
2016-07-02T05:38:51.254Z,10
2016-07-02T05:39:51.281Z,10
2016-07-02T05:40:51.297Z,10
2016-07-02T05:41:51.324Z,10
2016-07-02T05:42:51.351Z,15
2016-07-02T05:43:51.386Z,15
2016-07-02T05:44:51.407Z,15
2016-07-02T05:45:51.431Z,15
2016-07-02T05:46:51.459Z,20
2016-07-02T05:47:51.494Z,20
2016-07-02T05:48:51.525Z,20
2016-07-02T05:49:52.163Z,20
2016-07-02T05:50:51.571Z,20
2016-07-02T05:51:51.599Z,20
2016-07-02T05:52:51.628Z,20
2016-07-02T05:53:52.293Z,20
2016-07-02T05:54:51.686Z,20
2016-07-02T05:55:51.715Z,20
2016-07-02T05:56:51.743Z,15
2016-07-02T05:57:51.778Z,15
2016-07-02T05:58:51.782Z,15
2016-07-02T05:59:51.811Z,15
2016-07-02T06:00:52.446Z,10
2016-07-02T06:01:51.875Z,10
2016-07-02T06:02:51.887Z,15
2016-07-02T06:03:52.545Z,15
2016-07-02T06:04:51.956Z,15
2016-07-02T06:05:52.002Z,20
2016-07-02T06:06:52.016Z,20
2016-07-02T06:07:52.043Z,15
2016-07-02T06:08:52.060Z,15
2016-07-02T06:09:52.096Z,10
2016-07-02T06:10:52.122Z,10
2016-07-02T06:11:52.142Z,15
2016-07-02T06:12:52.175Z,20
2016-07-02T06:13:52.204Z,20
2016-07-02T06:14:52.227Z,20
2016-07-02T06:15:52.257Z,20
2016-07-02T06:16:52.275Z,15
2016-07-02T06:17:52.318Z,15
2016-07-02T06:18:52.334Z,20
2016-07-02T06:19:52.364Z,20
2016-07-02T06:20:52.404Z,20
2016-07-02T06:21:52.416Z,15
2016-07-02T06:22:52.450Z,10
2016-07-02T06:23:52.482Z,10
2016-07-02T06:24:52.508Z,10
2016-07-02T06:25:52.526Z,15
2016-07-02T06:26:52.544Z,10
2016-07-02T06:27:52.582Z,10
2016-07-02T06:28:52.611Z,15
2016-07-02T06:29:52.627Z,15
2016-07-02T06:30:52.666Z,15
2016-07-02T06:31:52.685Z,15
2016-07-02T06:32:52.719Z,20
2016-07-02T06:33:52.742Z,20
2016-07-02T06:34:52.796Z,25
2016-07-02T06:35:52.953Z,25
2016-07-02T06:36:52.849Z,25
2016-07-02T06:37:52.859Z,25
2016-07-02T06:38:52.908Z,25
2016-07-02T06:39:52.922Z,30
2016-07-02T06:40:52.966Z,25
2016-07-02T06:41:52.977Z,20
2016-07-02T06:42:53.039Z,20
2016-07-02T06:43:53.035Z,20
2016-07-02T06:44:53.068Z,20
2016-07-02T06:45:53.088Z,20
2016-07-02T06:46:53.128Z,25
2016-07-02T06:47:53.139Z,25
2016-07-02T06:48:53.173Z,25
2016-07-02T06:49:53.198Z,25
2016-07-02T06:50:53.226Z,20
2016-07-02T06:51:53.257Z,20
2016-07-02T06:52:53.904Z,20
2016-07-02T06:53:53.309Z,20
2016-07-02T06:54:53.350Z,20
2016-07-02T06:55:53.372Z,20
2016-07-02T06:56:53.401Z,20
2016-07-02T06:57:53.426Z,25
2016-07-02T06:58:53.462Z,25
2016-07-02T06:59:53.477Z,25
2016-07-02T07:00:53.511Z,30
2016-07-02T07:01:53.544Z,30
2016-07-02T07:02:53.573Z,30
2016-07-02T07:03:53.603Z,30
2016-07-02T07:04:53.622Z,30
2016-07-02T07:05:53.648Z,30
2016-07-02T07:06:53.676Z,30
2016-07-02T07:07:53.707Z,30
2016-07-02T07:08:53.750Z,35
2016-07-02T07:09:53.770Z,35
2016-07-02T07:10:53.788Z,35
2016-07-02T07:11:53.827Z,30
2016-07-02T07:12:53.848Z,30
2016-07-02T07:13:54.504Z,30
2016-07-02T07:14:54.524Z,25
2016-07-02T07:15:53.933Z,25
2016-07-02T07:16:54.579Z,25
2016-07-02T07:17:53.986Z,25
2016-07-02T07:18:54.025Z,30
2016-07-02T07:19:54.057Z,25
2016-07-02T07:20:54.087Z,25
2016-07-02T07:21:54.114Z,25
2016-07-02T07:22:54.141Z,25
2016-07-02T07:23:54.162Z,30
2016-07-02T07:24:54.193Z,35
2016-07-02T07:25:54.233Z,40
2016-07-02T07:26:54.255Z,40
2016-07-02T07:27:54.278Z,35
2016-07-02T07:28:54.329Z,35
2016-07-02T07:29:54.331Z,30
2016-07-02T07:30:54.357Z,20
2016-07-02T07:31:54.404Z,20
2016-07-02T07:32:54.418Z,15
2016-07-02T07:33:54.455Z,15
2016-07-02T07:34:54.479Z,15
2016-07-02T07:35:55.150Z,15
2016-07-02T07:36:54.533Z,15
2016-07-02T07:37:54.571Z,15
2016-07-02T07:38:54.639Z,10
2016-07-02T07:39:54.710Z,15
2016-07-02T07:40:54.751Z,25
2016-07-02T07:41:54.693Z,20
2016-07-02T07:42:54.717Z,15
2016-07-02T07:43:54.744Z,10
2016-07-02T07:44:55.391Z,10
2016-07-02T07:45:54.809Z,10
2016-07-02T07:46:54.925Z,15
2016-07-02T07:47:54.861Z,20
2016-07-02T07:48:54.892Z,25
2016-07-02T07:49:54.925Z,20
2016-07-02T07:50:54.944Z,15
2016-07-02T07:51:55.685Z,15
2016-07-02T07:52:54.995Z,15
2016-07-02T07:53:55.030Z,20
2016-07-02T07:54:55.054Z,20
2016-07-02T07:55:55.147Z,25
2016-07-02T07:56:55.104Z,30
2016-07-02T07:57:55.237Z,30
2016-07-02T07:58:55.239Z,25
2016-07-02T07:59:55.415Z,25
2016-07-02T08:00:55.416Z,25
2016-07-02T08:01:55.356Z,20
2016-07-02T08:02:55.307Z,15
2016-07-02T08:03:55.324Z,20
2016-07-02T08:04:55.349Z,25
2016-07-02T08:05:55.383Z,25
2016-07-02T08:06:55.408Z,25
2016-07-02T08:07:55.441Z,25
2016-07-02T08:08:55.472Z,20
2016-07-02T08:09:55.581Z,20
2016-07-02T08:10:55.568Z,25
2016-07-02T08:11:55.650Z,25
2016-07-02T08:12:55.682Z,25
2016-07-02T08:13:55.621Z,30
2016-07-02T08:14:55.924Z,30
2016-07-02T08:15:55.678Z,35
2016-07-02T08:16:55.791Z,35
2016-07-02T08:17:55.770Z,25
2016-07-02T08:18:55.769Z,20
2016-07-02T08:19:55.892Z,20
2016-07-02T08:20:55.913Z,15
2016-07-02T08:21:55.854Z,15
2016-07-02T08:22:56.539Z,20
2016-07-02T08:23:56.063Z,20
2016-07-02T08:24:56.076Z,20
2016-07-02T08:25:56.148Z,20
2016-07-02T08:26:56.087Z,20
2016-07-02T08:27:56.029Z,20
2016-07-02T08:28:56.049Z,20
2016-07-02T08:29:56.175Z,20
2016-07-02T08:30:56.228Z,20
2016-07-02T08:31:56.129Z,20
2016-07-02T08:32:56.258Z,20
2016-07-02T08:33:56.190Z,15
2016-07-02T08:34:56.226Z,15
2016-07-02T08:35:56.265Z,15
2016-07-02T08:36:56.379Z,15
2016-07-02T08:37:56.416Z,15
2016-07-02T08:38:56.479Z,20
2016-07-02T08:39:56.365Z,25
2016-07-02T08:40:56.413Z,30
2016-07-02T08:41:56.521Z,40
2016-07-02T08:42:56.494Z,50
2016-07-02T08:43:56.491Z,55
2016-07-02T08:44:56.528Z,50
2016-07-02T08:45:56.552Z,45
2016-07-02T08:46:56.578Z,40
2016-07-02T08:47:57.215Z,40
2016-07-02T08:48:56.630Z,30
2016-07-02T08:49:56.675Z,25
2016-07-02T08:50:56.693Z,25
2016-07-02T08:51:56.722Z,30
2016-07-02T08:52:57.365Z,30
2016-07-02T08:53:56.792Z,30
2016-07-02T08:54:56.802Z,25
2016-07-02T08:55:56.941Z,25
2016-07-02T08:56:56.865Z,20
2016-07-02T08:57:57.529Z,15
2016-07-02T08:58:57.023Z,10
2016-07-02T08:59:57.028Z,10
2016-07-02T09:00:57.035Z,15
2016-07-02T09:01:57.084Z,20
2016-07-02T09:02:57.043Z,20
2016-07-02T09:03:57.095Z,20
2016-07-02T09:04:57.106Z,20
2016-07-02T09:05:57.149Z,20
2016-07-02T09:06:57.208Z,20
2016-07-02T09:07:57.195Z,20
2016-07-02T09:08:57.230Z,20
2016-07-02T09:09:57.256Z,15
2016-07-02T09:10:57.392Z,20
2016-07-02T09:11:57.387Z,20
2016-07-02T09:12:57.349Z,20
2016-07-02T09:13:57.380Z,20
2016-07-02T09:14:57.472Z,25
2016-07-02T09:15:57.442Z,25
2016-07-02T09:16:57.495Z,20
2016-07-02T09:17:57.493Z,20
2016-07-02T09:18:57.518Z,20
2016-07-02T09:19:57.552Z,20
2016-07-02T09:20:57.574Z,20
2016-07-02T09:21:57.705Z,20
2016-07-02T09:22:57.851Z,30
2016-07-02T09:23:57.773Z,35
2016-07-02T09:24:57.701Z,35
2016-07-02T09:25:57.748Z,40
2016-07-02T09:26:57.757Z,40
2016-07-02T09:27:58.393Z,40
2016-07-02T09:28:57.942Z,40
2016-07-02T09:29:57.850Z,35
2016-07-02T09:30:57.877Z,35
2016-07-02T09:31:57.912Z,35
2016-07-02T09:32:57.938Z,35
2016-07-02T09:33:58.588Z,35
2016-07-02T09:34:58.114Z,35
2016-07-02T09:35:58.027Z,35
2016-07-02T09:36:58.067Z,35
2016-07-02T09:37:58.087Z,45
2016-07-02T09:38:58.118Z,35
2016-07-02T09:39:58.142Z,20
2016-07-02T09:40:58.171Z,20
2016-07-02T09:41:58.206Z,30
2016-07-02T09:42:58.244Z,25
2016-07-02T09:43:58.273Z,10
2016-07-02T09:44:58.296Z,15
2016-07-02T09:45:58.328Z,25
2016-07-02T09:46:58.372Z,30
2016-07-02T09:47:58.422Z,25
2016-07-02T09:48:58.418Z,15
2016-07-02T09:49:58.455Z,15
2016-07-02T09:50:59.098Z,15
2016-07-02T09:51:58.519Z,20
2016-07-02T09:52:58.534Z,35
2016-07-02T09:53:58.762Z,30
2016-07-02T09:54:58.697Z,20
2016-07-02T09:55:58.821Z,15
2016-07-02T09:56:58.671Z,10
2016-07-02T09:57:58.688Z,15
2016-07-02T09:58:58.731Z,25
2016-07-02T09:59:58.746Z,15
2016-07-02T10:00:58.780Z,5
2016-07-02T10:01:58.814Z,0
2016-07-02T10:02:58.840Z,0
2016-07-02T10:03:59.492Z,0
2016-07-02T10:04:58.903Z,0
2016-07-02T10:05:58.929Z,0
2016-07-02T10:06:58.961Z,0
2016-07-02T10:07:59.181Z,0
2016-07-02T10:09:00.791Z,0
2016-07-02T10:09:59.443Z,0
2016-07-02T10:10:59.347Z,0
2016-07-02T10:11:59.301Z,5
2016-07-02T10:12:59.484Z,10
2016-07-02T10:13:59.417Z,25
2016-07-02T10:14:59.313Z,35
2016-07-02T10:15:59.336Z,35
2016-07-02T10:16:59.471Z,25
2016-07-02T10:17:59.487Z,20
2016-07-02T10:18:59.654Z,20
2016-07-02T10:19:59.638Z,20
2016-07-02T10:20:59.798Z,15
2016-07-02T10:21:59.816Z,10
2016-07-02T10:22:59.824Z,10
2016-07-02T10:23:59.802Z,15
2016-07-02T10:24:59.825Z,25
2016-07-02T10:25:59.850Z,25
2016-07-02T10:26:59.856Z,30
2016-07-02T10:27:59.809Z,30
2016-07-02T10:28:59.894Z,30
2016-07-02T10:29:59.825Z,25
2016-07-02T10:30:59.869Z,20
2016-07-02T10:31:59.848Z,15
2016-07-02T10:32:59.876Z,10
2016-07-02T10:33:59.879Z,10
2016-07-02T10:34:59.952Z,10
2016-07-02T10:35:59.924Z,10
2016-07-02T10:36:59.950Z,10
2016-07-02T10:37:59.977Z,5
2016-07-02T10:39:00.021Z,0
2016-07-02T10:40:00.027Z,0
2016-07-02T10:41:00.073Z,0
2016-07-02T10:42:00.190Z,0
2016-07-02T10:43:00.204Z,0
2016-07-02T10:44:00.300Z,0
2016-07-02T10:45:00.212Z,0
2016-07-02T10:46:00.217Z,0
2016-07-02T10:47:00.227Z,0
2016-07-02T10:48:00.267Z,5
2016-07-02T10:49:00.277Z,10
2016-07-02T10:50:00.315Z,20
2016-07-02T10:51:00.332Z,20
2016-07-02T10:52:00.384Z,15
2016-07-02T10:53:00.388Z,10
2016-07-02T10:54:00.422Z,10
2016-07-02T10:55:00.443Z,10
2016-07-02T10:56:00.480Z,15
2016-07-02T10:57:00.498Z,20
2016-07-02T10:58:00.522Z,20
2016-07-02T10:59:00.591Z,15
2016-07-02T11:00:00.583Z,15
2016-07-02T11:01:00.622Z,15
2016-07-02T11:02:00.636Z,20
2016-07-02T11:03:00.703Z,25
2016-07-02T11:04:00.722Z,35
2016-07-02T11:05:00.718Z,30
2016-07-02T11:06:00.809Z,20
2016-07-02T11:07:00.831Z,20
2016-07-02T11:08:00.849Z,20
2016-07-02T11:09:00.862Z,25
2016-07-02T11:10:00.902Z,25
2016-07-02T11:11:00.943Z,25
2016-07-02T11:12:00.960Z,35
2016-07-02T11:13:00.983Z,30
2016-07-02T11:14:01.013Z,20
2016-07-02T11:15:01.050Z,20
2016-07-02T11:16:01.081Z,30
2016-07-02T11:17:01.091Z,30
2016-07-02T11:18:01.119Z,35
2016-07-02T11:19:01.147Z,35
2016-07-02T11:20:01.169Z,45
2016-07-02T11:21:01.237Z,45
2016-07-02T11:22:01.235Z,50
2016-07-02T11:23:01.260Z,50
2016-07-02T11:24:01.303Z,45
2016-07-02T11:25:01.321Z,45
2016-07-02T11:26:01.334Z,45
2016-07-02T11:27:01.379Z,45
2016-07-02T11:28:01.418Z,40
2016-07-02T11:29:01.443Z,30
2016-07-02T11:30:01.464Z,30
2016-07-02T11:31:01.511Z,25
2016-07-02T11:32:01.526Z,25
2016-07-02T11:33:01.566Z,30
2016-07-02T11:34:01.595Z,30
2016-07-02T11:35:01.616Z,30
2016-07-02T11:36:01.639Z,30
2016-07-02T11:37:01.695Z,30
2016-07-02T11:38:01.700Z,25
2016-07-02T11:39:01.762Z,25
2016-07-02T11:40:01.767Z,25
2016-07-02T11:41:01.798Z,20
2016-07-02T11:42:01.840Z,15
2016-07-02T11:43:01.850Z,15
2016-07-02T11:44:01.991Z,20
2016-07-02T11:45:02.004Z,25
2016-07-02T11:46:02.157Z,35
2016-07-02T11:47:02.196Z,35
2016-07-02T11:48:02.344Z,40
2016-07-02T11:49:02.825Z,45
2016-07-02T11:50:02.237Z,45
2016-07-02T11:51:02.268Z,45
2016-07-02T11:52:02.342Z,55
2016-07-02T11:53:02.302Z,60
2016-07-02T11:54:02.347Z,60
2016-07-02T11:55:02.374Z,60
2016-07-02T11:56:02.373Z,60
2016-07-02T11:57:02.374Z,60
2016-07-02T11:58:02.407Z,55
2016-07-02T11:59:02.414Z,40
2016-07-02T12:00:02.446Z,30
2016-07-02T12:01:02.454Z,30
2016-07-02T12:02:02.460Z,30
2016-07-02T12:03:02.482Z,30
2016-07-02T12:04:02.502Z,35
2016-07-02T12:05:02.536Z,35
2016-07-02T12:06:02.529Z,35
2016-07-02T12:07:02.573Z,25
2016-07-02T12:08:02.625Z,20
2016-07-02T12:09:02.632Z,20
2016-07-02T12:10:02.657Z,20
2016-07-02T12:11:02.673Z,20
2016-07-02T12:12:02.704Z,20
2016-07-02T12:13:02.739Z,20
2016-07-02T12:14:02.762Z,25
2016-07-02T12:15:02.801Z,30
2016-07-02T12:16:02.845Z,25
2016-07-02T12:17:02.849Z,25
2016-07-02T12:18:02.879Z,25
2016-07-02T12:19:02.915Z,35
2016-07-02T12:20:02.959Z,40
2016-07-02T12:21:02.987Z,35
2016-07-02T12:22:03.606Z,55
2016-07-02T12:23:03.042Z,70
2016-07-02T12:24:03.079Z,85
2016-07-02T12:25:03.105Z,80
2016-07-02T12:26:03.750Z,70
2016-07-02T12:27:03.161Z,55
2016-07-02T12:28:03.180Z,50
2016-07-02T12:29:03.207Z,45
2016-07-02T12:30:03.268Z,50
2016-07-02T12:31:03.275Z,55
2016-07-02T12:32:03.290Z,50
2016-07-02T12:33:03.320Z,45
2016-07-02T12:34:03.363Z,35
2016-07-02T12:35:03.426Z,30
2016-07-02T12:36:03.441Z,30
2016-07-02T12:37:03.438Z,30
2016-07-02T12:38:03.484Z,35
2016-07-02T12:39:03.506Z,35
2016-07-02T12:40:03.519Z,30
2016-07-02T12:41:03.598Z,25
2016-07-02T12:42:03.576Z,20
2016-07-02T12:43:03.630Z,20
2016-07-02T12:44:03.626Z,20
2016-07-02T12:45:03.657Z,15
2016-07-02T12:46:03.716Z,25
2016-07-02T12:47:03.767Z,25
2016-07-02T12:48:03.745Z,30
2016-07-02T12:49:03.801Z,40
2016-07-02T12:50:03.815Z,35
2016-07-02T12:51:03.946Z,35
2016-07-02T12:52:03.959Z,35
2016-07-02T12:53:03.966Z,30
2016-07-02T12:54:04.781Z,25
2016-07-02T12:55:04.160Z,25
2016-07-02T12:56:04.321Z,25
2016-07-02T12:57:04.289Z,25
2016-07-02T12:58:04.280Z,25
2016-07-02T12:59:04.277Z,35
2016-07-02T13:00:04.279Z,25
2016-07-02T13:01:04.459Z,30
2016-07-02T13:02:04.279Z,30
2016-07-02T13:03:04.432Z,35
2016-07-02T13:04:04.431Z,45
2016-07-02T13:05:04.407Z,45
2016-07-02T13:06:04.440Z,40
2016-07-02T13:07:04.461Z,30
2016-07-02T13:08:04.550Z,35
2016-07-02T13:09:04.664Z,40
2016-07-02T13:10:04.504Z,30
2016-07-02T13:11:04.498Z,30
2016-07-02T13:12:04.519Z,30
2016-07-02T13:13:04.542Z,30
2016-07-02T13:14:04.704Z,30
2016-07-02T13:15:04.527Z,25
2016-07-02T13:16:04.600Z,25
2016-07-02T13:17:04.637Z,25
2016-07-02T13:18:04.697Z,20
2016-07-02T13:19:04.738Z,20
2016-07-02T13:20:04.742Z,20
2016-07-02T13:21:04.789Z,20
2016-07-02T13:22:04.899Z,20
2016-07-02T13:23:04.803Z,20
2016-07-02T13:24:04.809Z,20
2016-07-02T13:25:04.829Z,15
2016-07-02T13:26:04.915Z,15
2016-07-02T13:27:04.993Z,15
2016-07-02T13:28:04.960Z,20
2016-07-02T13:29:05.023Z,25
2016-07-02T13:30:05.022Z,30
2016-07-02T13:31:05.072Z,30
2016-07-02T13:32:05.031Z,35
2016-07-02T13:33:05.099Z,40
2016-07-02T13:34:05.088Z,50
2016-07-02T13:35:05.084Z,45
2016-07-02T13:36:05.080Z,45
2016-07-02T13:37:05.054Z,40
2016-07-02T13:38:05.084Z,40
2016-07-02T13:39:05.100Z,45
2016-07-02T13:40:05.136Z,40
2016-07-02T13:41:05.154Z,40
2016-07-02T13:42:05.195Z,50
2016-07-02T13:43:05.224Z,65
2016-07-02T13:44:05.445Z,70
2016-07-02T13:45:05.287Z,50
2016-07-02T13:46:05.290Z,40
2016-07-02T13:47:05.340Z,50
2016-07-02T13:48:05.369Z,60
2016-07-02T13:49:05.402Z,50
2016-07-02T13:50:05.428Z,50
2016-07-02T13:51:05.454Z,50
2016-07-02T13:52:05.488Z,50
2016-07-02T13:53:05.506Z,45
2016-07-02T13:54:05.534Z,30
2016-07-02T13:55:05.578Z,25
2016-07-02T13:56:05.595Z,25
2016-07-02T13:57:05.629Z,25
2016-07-02T13:58:06.550Z,20
2016-07-02T13:59:05.686Z,15
2016-07-02T14:00:06.315Z,15
2016-07-02T14:01:05.768Z,15
2016-07-02T14:02:05.783Z,15
2016-07-02T14:03:06.535Z,10
2016-07-02T14:04:05.824Z,10
2016-07-02T14:05:06.560Z,10
2016-07-02T14:06:06.553Z,10
2016-07-02T14:07:07.990Z,15
2016-07-02T14:08:07.482Z,20
2016-07-02T14:09:08.169Z,20
2016-07-02T14:10:08.045Z,30
2016-07-02T14:11:09.161Z,25
2016-07-02T14:12:08.109Z,25
2016-07-02T14:13:08.668Z,25
2016-07-02T14:14:07.740Z,20
2016-07-02T14:15:10.745Z,20
2016-07-02T14:16:08.675Z,20
2016-07-02T14:17:07.677Z,20
2016-07-02T14:18:08.820Z,25
2016-07-02T14:19:06.514Z,20
2016-07-02T14:20:06.564Z,15
2016-07-02T14:21:06.643Z,15
2016-07-02T14:22:06.557Z,15
2016-07-02T14:23:06.579Z,10
2016-07-02T14:24:06.689Z,10
2016-07-02T14:25:06.609Z,10
2016-07-02T14:26:06.610Z,10
2016-07-02T14:27:06.579Z,10
2016-07-02T14:28:06.623Z,10